createdAt,value
2018-03-18T00:00:11.771Z,54.98
2018-03-18T00:00:52.181Z,54.98
2018-03-18T00:01:32.932Z,54.5
2018-03-18T00:02:13.291Z,53.46
2018-03-18T00:02:54.148Z,53.75
2018-03-18T00:03:34.777Z,53.94
2018-03-18T00:04:15.181Z,53.46
2018-03-18T00:04:55.775Z,53.27
2018-03-18T00:05:36.121Z,54.22
2018-03-18T00:06:16.806Z,54.88
2018-03-18T00:06:57.173Z,54.98
2018-03-18T00:07:37.957Z,54.41
2018-03-18T00:08:18.860Z,54.79
2018-03-18T00:09:00.275Z,54.98
2018-03-18T00:09:40.869Z,54.98
2018-03-18T00:10:21.231Z,54.88
2018-03-18T00:11:01.649Z,55.05
2018-03-18T00:11:42.403Z,55.43
2018-03-18T00:12:22.801Z,55.83
2018-03-18T00:13:03.356Z,55.26
2018-03-18T00:13:43.687Z,56.49
2018-03-18T00:14:24.658Z,56.12
2018-03-18T00:15:06.691Z,54.98
2018-03-18T00:15:47.123Z,54.5
2018-03-18T00:16:27.872Z,54.32
2018-03-18T00:17:08.056Z,54.32
2018-03-18T00:17:48.523Z,54.03
2018-03-18T00:18:29.378Z,53.94
2018-03-18T00:19:10.248Z,54.22
2018-03-18T00:19:51.091Z,54.22
2018-03-18T00:20:31.510Z,54.25
2018-03-18T00:21:12.225Z,53.46
2018-03-18T00:21:52.351Z,53.87
2018-03-18T00:22:32.749Z,53.58
2018-03-18T00:23:13.332Z,53.49
2018-03-18T00:23:53.740Z,53.39
2018-03-18T00:24:34.174Z,53.39
2018-03-18T00:25:14.555Z,53.39
2018-03-18T00:25:54.992Z,53.58
2018-03-18T00:26:35.606Z,53.39
2018-03-18T00:27:16.033Z,54.06
2018-03-18T00:27:56.312Z,53.11
2018-03-18T00:28:36.665Z,52.83
2018-03-18T00:29:17.114Z,52.64
2018-03-18T00:29:57.623Z,52.83
2018-03-18T00:30:38.020Z,53.49
2018-03-18T00:31:18.363Z,54.06
2018-03-18T00:32:00.229Z,53.87
2018-03-18T00:32:41.285Z,53.58
2018-03-18T00:33:21.735Z,53.2
2018-03-18T00:34:02.139Z,53.46
2018-03-18T00:34:42.574Z,53.65
2018-03-18T00:35:23.258Z,54.22
2018-03-18T00:36:03.436Z,54.6
2018-03-18T00:36:43.900Z,54.88
2018-03-18T00:37:24.279Z,55.17
2018-03-18T00:38:04.721Z,55.1
2018-03-18T00:38:45.115Z,54.22
2018-03-18T00:39:25.562Z,53.37
2018-03-18T00:40:05.942Z,53.46
2018-03-18T00:40:46.506Z,53.46
2018-03-18T00:41:26.938Z,54.13
2018-03-18T00:42:07.320Z,54.13
2018-03-18T00:42:48.054Z,54.13
2018-03-18T00:43:28.627Z,53.75
2018-03-18T00:44:08.635Z,54.15
2018-03-18T00:44:49.189Z,54.32
2018-03-18T00:45:30.642Z,54.34
2018-03-18T00:46:11.322Z,54.53
2018-03-18T00:46:51.769Z,54.34
2018-03-18T00:47:32.093Z,54.53
2018-03-18T00:48:13.587Z,54.15
2018-03-18T00:48:54.159Z,53.39
2018-03-18T00:49:34.674Z,53.2
2018-03-18T00:50:14.940Z,53.77
2018-03-18T00:50:55.380Z,53.65
2018-03-18T00:51:35.798Z,54.03
2018-03-18T00:52:16.172Z,54.25
2018-03-18T00:52:57.445Z,54.15
2018-03-18T00:53:37.865Z,53.39
2018-03-18T00:54:18.330Z,52.61
2018-03-18T00:54:58.694Z,52.89
2018-03-18T00:55:39.144Z,53.39
2018-03-18T00:57:34.269Z,53.39
2018-03-18T00:58:14.341Z,52.92
2018-03-18T00:58:55.060Z,53.87
2018-03-18T00:59:35.671Z,53.87
2018-03-18T01:00:17.273Z,53.68
2018-03-18T01:01:02.321Z,52.92
2018-03-18T01:01:44.109Z,52.83
2018-03-18T01:02:27.156Z,52.54
2018-03-18T01:03:08.964Z,53.39
2018-03-18T01:03:49.333Z,51.87
2018-03-18T01:04:29.782Z,52.04
2018-03-18T01:05:10.402Z,52.89
2018-03-18T01:05:51.536Z,54.38
2018-03-18T01:06:32.691Z,55.8
2018-03-18T01:07:12.961Z,56.59
2018-03-18T01:07:53.501Z,56.66
2018-03-18T01:08:33.904Z,55.71
2018-03-18T01:09:15.176Z,55.71
2018-03-18T01:09:55.989Z,56.4
2018-03-18T01:10:37.347Z,55.83
2018-03-18T01:11:17.672Z,55.07
2018-03-18T01:11:59.265Z,55.17
2018-03-18T01:12:39.664Z,54.98
2018-03-18T01:13:22.325Z,54.88
2018-03-18T01:14:10.163Z,54.79
2018-03-18T01:14:53.811Z,55.93
2018-03-18T01:15:35.791Z,56.02
2018-03-18T01:16:16.772Z,55.64
2018-03-18T01:16:57.529Z,55.07
2018-03-18T01:17:37.922Z,54.6
2018-03-18T01:18:18.329Z,54.22
2018-03-18T01:18:58.760Z,54.13
2018-03-18T01:19:41.517Z,54.63
2018-03-18T01:20:22.153Z,54.44
2018-03-18T01:21:02.441Z,53.58
2018-03-18T01:21:45.557Z,53.96
2018-03-18T01:22:26.931Z,53.3
2018-03-18T01:23:07.330Z,52.83
2018-03-18T01:23:47.766Z,52.7
2018-03-18T01:24:29.227Z,53.65
2018-03-18T01:25:09.886Z,53.75
2018-03-18T01:25:50.275Z,54.03
2018-03-18T01:26:32.510Z,54.22
2018-03-18T01:31:29.468Z,54.69
2018-03-18T01:32:11.899Z,53.75
2018-03-18T01:32:52.305Z,53.46
2018-03-18T01:33:32.922Z,53.18
2018-03-18T01:34:13.384Z,53.65
2018-03-18T01:34:53.916Z,53.46
2018-03-18T01:35:34.887Z,53.27
2018-03-18T01:36:16.035Z,53.46
2018-03-18T01:36:57.018Z,54.6
2018-03-18T01:37:37.856Z,54.88
2018-03-18T01:38:19.035Z,54.32
2018-03-18T01:39:00.678Z,54.5
2018-03-18T01:39:41.827Z,54.5
2018-03-18T01:40:22.510Z,54.79
2018-03-18T01:41:02.893Z,54.28
2018-03-18T01:41:43.664Z,54.57
2018-03-18T01:42:24.583Z,55.24
2018-03-18T01:43:04.851Z,56.09
2018-03-18T01:43:45.250Z,55.99
2018-03-18T01:44:25.678Z,56.37
2018-03-18T01:45:07.974Z,55.9
2018-03-18T01:45:48.481Z,56.59
2018-03-18T01:46:28.883Z,56.21
2018-03-18T01:47:12.043Z,55.83
2018-03-18T01:47:53.207Z,55.93
2018-03-18T01:48:33.559Z,54.6
2018-03-18T01:49:14.091Z,54.19
2018-03-18T01:49:55.433Z,54.76
2018-03-18T01:50:36.426Z,56.94
2018-03-18T01:51:17.702Z,57.23
2018-03-18T01:51:58.086Z,56.94
2018-03-18T01:52:38.720Z,56.94
2018-03-18T01:53:20.284Z,57.16
2018-03-18T01:54:01.958Z,57.16
2018-03-18T01:54:44.011Z,56.59
2018-03-18T01:55:24.721Z,56.21
2018-03-18T01:56:06.039Z,56.12
2018-03-18T01:56:46.899Z,56.49
2018-03-18T01:57:29.213Z,56.12
2018-03-18T01:58:11.090Z,56.12
2018-03-18T01:58:51.810Z,56.59
2018-03-18T01:59:34.500Z,56.12
2018-03-18T02:00:15.378Z,55.83
2018-03-18T02:00:55.879Z,54.69
2018-03-18T02:01:36.299Z,54.57
2018-03-18T02:02:16.708Z,55.05
2018-03-18T02:02:57.191Z,55.71
2018-03-18T02:03:37.571Z,56.21
2018-03-18T02:04:19.097Z,56.02
2018-03-18T02:05:00.076Z,55.93
2018-03-18T02:05:40.518Z,54.98
2018-03-18T02:06:21.134Z,54.88
2018-03-18T02:07:01.734Z,54.76
2018-03-18T02:07:42.244Z,55.14
2018-03-18T02:08:23.251Z,55.71
2018-03-18T02:09:03.899Z,55.9
2018-03-18T02:09:45.084Z,56.37
2018-03-18T02:10:25.626Z,56.46
2018-03-18T02:11:06.743Z,57.42
2018-03-18T02:11:46.936Z,56.78
2018-03-18T02:12:27.584Z,55.93
2018-03-18T02:13:09.512Z,55.83
2018-03-18T02:13:50.126Z,55.93
2018-03-18T02:14:32.469Z,56.02
2018-03-18T02:15:13.578Z,56.02
2018-03-18T02:15:54.668Z,55.45
2018-03-18T02:16:34.916Z,54.22
2018-03-18T02:17:15.554Z,53.46
2018-03-18T02:17:56.016Z,54.79
2018-03-18T02:18:38.733Z,55.33
2018-03-18T02:19:22.257Z,55.05
2018-03-18T02:20:02.609Z,54.95
2018-03-18T02:20:45.009Z,56.85
2018-03-18T02:21:27.767Z,58.17
2018-03-18T02:22:10.016Z,57.98
2018-03-18T02:22:50.778Z,57.42
2018-03-18T02:23:31.241Z,55.99
2018-03-18T02:24:11.761Z,56.56
2018-03-18T02:24:52.363Z,57.7
2018-03-18T02:25:34.532Z,58.07
2018-03-18T02:26:15.359Z,58.26
2018-03-18T02:26:55.724Z,58.07
2018-03-18T02:27:36.681Z,56.59
2018-03-18T02:34:03.032Z,56.02
2018-03-18T02:34:43.409Z,55.07
2018-03-18T02:35:23.831Z,55.45
2018-03-18T02:36:04.233Z,54.98
2018-03-18T02:36:44.660Z,54.79
2018-03-18T02:37:25.063Z,54.22
2018-03-18T02:41:10.519Z,55.83
2018-03-18T02:48:05.080Z,56.94
2018-03-18T02:48:46.391Z,57.13
2018-03-18T02:49:27.444Z,56.27
2018-03-18T02:50:07.840Z,55.99
2018-03-18T02:50:48.353Z,55.8
2018-03-18T02:51:29.507Z,54.95
2018-03-18T02:52:10.626Z,56.06
2018-03-18T02:52:51.875Z,57.57
2018-03-18T02:53:33.248Z,58.14
2018-03-18T02:54:16.626Z,58.9
2018-03-18T02:54:59.124Z,58.81
2018-03-18T02:55:40.756Z,58.55
2018-03-18T02:56:22.063Z,58.45
2018-03-18T02:57:02.513Z,57.7
2018-03-18T02:57:42.917Z,57.32
2018-03-18T02:58:23.411Z,56.46
2018-03-18T02:59:04.110Z,56.09
2018-03-18T02:59:45.027Z,54.86
2018-03-18T03:00:25.590Z,54.95
2018-03-18T03:01:06.106Z,55.05
2018-03-18T03:01:48.142Z,56.18
2018-03-18T03:02:29.634Z,56.37
2018-03-18T03:03:10.011Z,56.46
2018-03-18T03:03:50.407Z,56.46
2018-03-18T03:04:30.924Z,56.27
2018-03-18T03:05:12.057Z,55.33
2018-03-18T03:05:52.978Z,55.24
2018-03-18T03:06:33.128Z,55.9
2018-03-18T03:07:13.923Z,55.11
2018-03-18T03:07:54.285Z,55.49
2018-03-18T03:08:36.025Z,57.29
2018-03-18T03:09:16.264Z,56.91
2018-03-18T03:09:56.782Z,57.95
2018-03-18T03:10:37.166Z,59.94
2018-03-18T03:11:18.128Z,59.38
2018-03-18T03:12:00.073Z,58.71
2018-03-18T03:12:40.591Z,59.28
2018-03-18T03:13:21.044Z,59.19
2018-03-18T03:14:01.366Z,57.79
2018-03-18T03:14:42.968Z,56.94
2018-03-18T03:15:26.607Z,57.13
2018-03-18T03:16:09.264Z,57.23
2018-03-18T03:16:49.603Z,57.13
2018-03-18T03:17:30.082Z,57.32
2018-03-18T03:18:10.415Z,55.8
2018-03-18T03:18:50.798Z,55.43
2018-03-18T03:19:32.734Z,56.75
2018-03-18T03:20:13.931Z,56.66
2018-03-18T03:20:54.593Z,56.75
2018-03-18T03:21:35.871Z,57.13
2018-03-18T03:22:16.080Z,56.37
2018-03-18T03:22:56.464Z,56.27
2018-03-18T03:23:37.103Z,56.56
2018-03-18T03:24:17.527Z,57.04
2018-03-18T03:25:00.061Z,57.13
2018-03-18T03:25:41.151Z,57.32
2018-03-18T03:26:22.471Z,56.68
2018-03-18T03:27:02.238Z,55.8
2018-03-18T03:27:44.802Z,55.24
2018-03-18T03:28:29.120Z,56.09
2018-03-18T03:29:11.480Z,56.37
2018-03-18T03:29:55.490Z,56.37
2018-03-18T03:30:36.431Z,56.18
2018-03-18T03:31:16.912Z,55.99
2018-03-18T03:31:58.100Z,56.09
2018-03-18T03:32:38.512Z,55.14
2018-03-18T03:33:19.382Z,55.71
2018-03-18T03:33:59.604Z,56.09
2018-03-18T03:34:40.003Z,56.27
2018-03-18T03:35:21.437Z,56.27
2018-03-18T03:36:01.877Z,56.18
2018-03-18T03:36:42.262Z,56.75
2018-03-18T03:37:24.431Z,56.12
2018-03-18T03:38:05.797Z,55.83
2018-03-18T03:38:46.169Z,54.86
2018-03-18T03:39:27.860Z,55.43
2018-03-18T03:40:08.289Z,55.64
2018-03-18T03:40:50.012Z,55.93
2018-03-18T03:41:30.080Z,54.79
2018-03-18T03:42:10.696Z,54.38
2018-03-18T03:42:51.459Z,55.07
2018-03-18T03:43:32.273Z,55.17
2018-03-18T03:44:16.988Z,54.88
2018-03-18T03:44:57.183Z,54.88
2018-03-18T03:45:38.393Z,54.5
2018-03-18T03:46:18.758Z,54.22
2018-03-18T03:46:59.093Z,54.03
2018-03-18T03:47:40.787Z,54
2018-03-18T03:48:22.296Z,54.19
2018-03-18T03:49:03.496Z,55.14
2018-03-18T03:49:44.506Z,54.38
2018-03-18T03:50:25.208Z,55.14
2018-03-18T03:51:05.963Z,55.99
2018-03-18T03:51:47.377Z,55.8
2018-03-18T03:52:28.686Z,54.47
2018-03-18T03:53:09.267Z,55.9
2018-03-18T03:53:50.698Z,55.99
2018-03-18T03:54:33.019Z,54.83
2018-03-18T03:55:13.955Z,55.49
2018-03-18T03:56:03.437Z,57.67
2018-03-18T03:56:44.758Z,58.07
2018-03-18T03:57:27.980Z,58.93
2018-03-18T03:58:07.886Z,56.85
2018-03-18T03:58:49.552Z,55.02
2018-03-18T03:59:29.898Z,55.96
2018-03-18T04:00:10.850Z,56.44
2018-03-18T04:00:51.509Z,56.15
2018-03-18T04:01:32.681Z,56.66
2018-03-18T04:02:14.467Z,55.99
2018-03-18T04:02:55.371Z,56.27
2018-03-18T04:03:36.675Z,56.94
2018-03-18T04:04:17.296Z,57.42
2018-03-18T04:04:59.106Z,57.13
2018-03-18T04:05:45.031Z,54.95
2018-03-18T04:06:27.861Z,56.18
2018-03-18T04:47:09.706Z,54.79
2018-03-18T04:49:22.659Z,54.6
2018-03-18T04:50:02.959Z,53.63
2018-03-18T04:52:16.929Z,53.81
2018-03-18T04:54:04.636Z,54.76
2018-03-18T04:54:44.974Z,54.67
2018-03-18T04:56:34.148Z,54.67
2018-03-18T04:58:47.533Z,54.1
2018-03-18T05:01:20.110Z,54.93
2018-03-18T05:02:00.513Z,54.55
2018-03-18T05:02:40.898Z,55.96
2018-03-18T05:06:02.182Z,57.95
2018-03-18T05:06:42.519Z,56.91
2018-03-18T05:08:31.570Z,57.1
2018-03-18T05:10:19.494Z,57.2
2018-03-18T05:10:59.851Z,57.2
2018-03-18T05:11:40.295Z,57.2
2018-03-18T05:12:20.662Z,58.52
2018-03-18T05:13:01.092Z,58.26
2018-03-18T05:13:41.546Z,58.74
2018-03-18T05:15:54.452Z,59.97
2018-03-18T05:16:34.874Z,59.97
2018-03-18T05:17:15.242Z,60.16
2018-03-18T05:17:55.612Z,60.25
2018-03-18T05:20:09.639Z,60.8
2018-03-18T05:20:49.994Z,61.9
2018-03-18T05:24:14.226Z,66.41
2018-03-18T05:28:08.817Z,71.33
2018-03-18T05:29:57.513Z,70.89
2018-03-18T05:30:37.830Z,69.76
2018-03-18T05:32:50.821Z,69.09
2018-03-18T05:35:03.787Z,69.13
2018-03-18T05:37:16.659Z,67.43
2018-03-18T05:37:57.014Z,67.33
2018-03-18T05:38:37.438Z,67.52
2018-03-18T05:40:26.163Z,66.86
2018-03-18T05:41:06.542Z,67.27
2018-03-18T05:42:54.258Z,65.56
2018-03-18T05:43:34.599Z,64.81
2018-03-18T05:44:15.045Z,64.33
2018-03-18T05:48:02.496Z,63.67
2018-03-18T05:50:15.603Z,63.42
2018-03-18T05:55:33.514Z,62.91
2018-03-18T05:57:21.462Z,63.48
2018-03-18T05:59:34.435Z,63.23
2018-03-18T06:03:20.852Z,63.39
2018-03-18T06:05:08.506Z,63.42
2018-03-18T06:05:48.910Z,63.23
2018-03-18T06:06:29.274Z,62.66
2018-03-18T06:07:09.676Z,62.47
2018-03-18T06:07:50.142Z,62.85
2018-03-18T06:08:30.499Z,62.37
2018-03-18T06:16:55.532Z,62.24
2018-03-18T06:17:35.902Z,62.18
2018-03-18T06:18:16.296Z,62.18
2018-03-18T06:18:56.724Z,62.47
2018-03-18T06:19:37.122Z,62.37
2018-03-18T06:21:51.537Z,62.08
2018-03-18T06:23:39.558Z,61.24
2018-03-18T06:24:19.887Z,61.43
2018-03-18T06:26:07.644Z,61.43
2018-03-18T06:27:55.504Z,61.33
2018-03-18T06:28:35.913Z,60.86
2018-03-18T06:29:16.259Z,60.28
2018-03-18T06:29:56.674Z,59.81
2018-03-18T06:30:37.052Z,60.28
2018-03-18T06:31:17.404Z,59.41
2018-03-18T06:31:57.786Z,60.16
2018-03-18T06:34:14.266Z,62.05
2018-03-18T06:34:55.404Z,62.15
2018-03-18T06:35:36.354Z,61.87
2018-03-18T06:36:17.231Z,62.62
2018-03-18T06:36:58.451Z,62.82
2018-03-18T06:37:39.932Z,62.34
2018-03-18T06:38:20.474Z,62.24
2018-03-18T06:39:00.909Z,62.15
2018-03-18T06:39:41.812Z,62.05
2018-03-18T06:40:21.991Z,62.24
2018-03-18T06:41:03.545Z,62.34
2018-03-18T06:41:44.583Z,62.82
2018-03-18T06:44:05.921Z,62.43
2018-03-18T06:44:46.269Z,62.24
2018-03-18T06:51:39.090Z,60.19
2018-03-18T06:52:19.462Z,60.1
2018-03-18T06:52:59.894Z,59.53
2018-03-18T06:53:40.271Z,59.15
2018-03-18T06:54:20.652Z,59.25
2018-03-18T06:55:01.058Z,58.96
2018-03-18T06:55:41.465Z,59.44
2018-03-18T06:56:21.883Z,59.91
2018-03-18T07:00:09.328Z,58.96
2018-03-18T07:00:49.604Z,58.96
2018-03-18T07:08:48.577Z,60.35
2018-03-18T07:09:28.867Z,61.08
2018-03-18T07:10:09.282Z,62.66
2018-03-18T07:12:26.412Z,64.3
2018-03-18T07:13:14.923Z,64.04
2018-03-18T07:14:03.162Z,62.82
2018-03-18T07:14:44.915Z,62.53
2018-03-18T07:15:25.712Z,61.87
2018-03-18T07:16:06.206Z,61.58
2018-03-18T07:16:46.624Z,61.02
2018-03-18T07:17:27.082Z,61.77
2018-03-18T07:18:09.308Z,62.15
2018-03-18T07:18:50.625Z,62.15
2018-03-18T07:19:31.227Z,61.93
2018-03-18T07:20:11.789Z,62.5
2018-03-18T07:20:52.474Z,62.88
2018-03-18T07:21:32.558Z,62.97
2018-03-18T07:22:13.184Z,64.39
2018-03-18T07:22:53.627Z,64.58
2018-03-18T07:23:34.001Z,64.3
2018-03-18T07:24:14.595Z,63.73
2018-03-18T07:24:54.976Z,63.82
2018-03-18T07:25:35.463Z,63.73
2018-03-18T07:26:18.188Z,63.73
2018-03-18T07:27:00.710Z,63.73
2018-03-18T07:27:41.036Z,63.64
2018-03-18T07:28:21.636Z,63.79
2018-03-18T07:29:03.085Z,64.36
2018-03-18T07:29:45.231Z,64.45
2018-03-18T07:30:25.656Z,66.06
2018-03-18T07:31:06.094Z,67.2
2018-03-18T07:31:47.054Z,66.06
2018-03-18T07:32:27.388Z,66.47
2018-03-18T07:33:07.772Z,65.44
2018-03-18T07:33:48.187Z,65.44
2018-03-18T07:34:28.628Z,64.87
2018-03-18T07:35:09.421Z,63.39
2018-03-18T07:35:50.183Z,62.31
2018-03-18T07:36:30.517Z,62.5
2018-03-18T07:37:12.907Z,64.39
2018-03-18T07:37:53.221Z,63.16
2018-03-18T07:38:35.995Z,63.73
2018-03-18T07:39:16.057Z,63.39
2018-03-18T07:39:56.442Z,63.48
2018-03-18T07:40:36.851Z,63.67
2018-03-18T07:41:17.495Z,62.53
2018-03-18T07:41:58.699Z,61.49
2018-03-18T07:42:39.189Z,61.61
2018-03-18T07:43:19.634Z,59.91
2018-03-18T07:44:00.237Z,59.53
2018-03-18T07:44:40.502Z,59.05
2018-03-18T07:45:21.429Z,58.11
2018-03-18T07:46:02.526Z,58.11
2018-03-18T07:46:42.328Z,58.29
2018-03-18T07:47:22.816Z,58.11
2018-03-18T07:48:03.404Z,58.67
2018-03-18T07:48:43.780Z,58.39
2018-03-18T07:49:24.206Z,58.04
2018-03-18T07:50:06.234Z,56.49
2018-03-18T07:50:46.612Z,57.06
2018-03-18T07:51:27.016Z,57.57
2018-03-18T07:52:08.150Z,57.28
2018-03-18T07:52:48.600Z,56.52
2018-03-18T07:53:28.911Z,55.86
2018-03-18T07:54:09.430Z,55.48
2018-03-18T07:54:49.820Z,54.91
2018-03-18T07:55:30.210Z,55.57
2018-03-18T07:56:10.625Z,56.15
2018-03-18T07:56:51.732Z,56.34
2018-03-18T07:57:32.634Z,55.96
2018-03-18T07:58:13.048Z,55.76
2018-03-18T07:58:53.475Z,54.94
2018-03-18T07:59:33.941Z,54.53
2018-03-18T08:00:14.306Z,54.66
2018-03-18T08:00:55.418Z,54.63
2018-03-18T08:01:35.724Z,55.1
2018-03-18T08:02:16.146Z,54.53
2018-03-18T08:02:56.609Z,54.56
2018-03-18T08:03:36.898Z,53.99
2018-03-18T08:04:17.290Z,53.7
2018-03-18T08:04:57.736Z,53.99
2018-03-18T08:05:38.152Z,53.96
2018-03-18T08:06:19.284Z,54.66
2018-03-18T08:06:59.638Z,54.46
2018-03-18T08:07:40.390Z,54.37
2018-03-18T08:08:22.685Z,53.8
2018-03-18T08:09:03.079Z,53.8
2018-03-18T08:09:43.560Z,52.85
2018-03-18T08:10:23.972Z,53.3
2018-03-18T08:11:04.567Z,54.25
2018-03-18T08:11:45.027Z,54.15
2018-03-18T08:12:27.872Z,53.58
2018-03-18T08:17:52.048Z,56.78
2018-03-18T08:18:32.402Z,56.4
2018-03-18T08:19:12.836Z,57.06
2018-03-18T08:19:53.288Z,56.49
2018-03-18T08:20:33.659Z,56.49
2018-03-18T08:21:14.111Z,56.4
2018-03-18T08:21:54.524Z,56.59
2018-03-18T08:28:46.114Z,57.25
2018-03-18T08:29:26.422Z,56.59
2018-03-18T08:30:06.802Z,57.25
2018-03-18T08:30:47.195Z,57.7
2018-03-18T08:33:00.179Z,58.86
2018-03-18T08:33:40.557Z,58.77
2018-03-18T08:37:26.986Z,58.11
2018-03-18T08:39:14.679Z,56.15
2018-03-18T08:39:55.044Z,55.86
2018-03-18T08:46:51.443Z,54.6
2018-03-18T08:48:39.515Z,55.93
2018-03-18T08:49:19.910Z,55.55
2018-03-18T08:50:00.308Z,55.93
2018-03-18T08:50:40.726Z,55.96
2018-03-18T08:51:21.080Z,55
2018-03-18T08:52:01.536Z,53.68
2018-03-18T09:00:50.012Z,53.77
2018-03-18T09:01:30.470Z,53.39
2018-03-18T09:02:10.954Z,53.49
2018-03-18T09:02:51.399Z,53.77
2018-03-18T09:03:31.919Z,53.87
2018-03-18T09:04:12.421Z,53.77
2018-03-18T09:04:52.869Z,53.96
2018-03-18T09:05:35.291Z,52.64
2018-03-18T09:06:16.519Z,51.68
2018-03-18T09:06:57.535Z,52.35
2018-03-18T09:07:38.651Z,52.73
2018-03-18T09:08:19.052Z,52.83
2018-03-18T09:08:59.692Z,54.15
2018-03-18T09:09:39.945Z,54.25
2018-03-18T09:16:12.419Z,51.43
2018-03-18T09:16:52.725Z,51.33
2018-03-18T09:17:33.142Z,51.24
2018-03-18T09:18:36.203Z,50.95
2018-03-18T09:19:16.638Z,51.43
2018-03-18T09:19:57.067Z,51.05
2018-03-18T09:20:37.548Z,50.86
2018-03-18T09:25:56.641Z,52.19
2018-03-18T09:26:36.989Z,51.9
2018-03-18T09:27:17.409Z,51.52
2018-03-18T09:27:57.977Z,50.86
2018-03-18T09:28:38.370Z,51.43
2018-03-18T09:29:18.777Z,50.76
2018-03-18T09:29:59.182Z,50.76
2018-03-18T09:30:39.549Z,50.67
2018-03-18T09:41:43.849Z,50.57
2018-03-18T09:42:24.181Z,49.91
2018-03-18T09:43:04.568Z,49.91
2018-03-18T09:43:45.055Z,50.03
2018-03-18T09:44:25.433Z,49.53
2018-03-18T09:45:05.843Z,49.93
2018-03-18T09:45:46.310Z,49.37
2018-03-18T09:46:26.652Z,48.61
2018-03-18T09:47:07.091Z,48.51
2018-03-18T09:47:47.525Z,48.41
2018-03-18T09:48:27.940Z,48.51
2018-03-18T09:49:08.556Z,48.41
2018-03-18T09:49:49.044Z,48.61
2018-03-18T09:50:29.397Z,48.51
2018-03-18T09:51:09.921Z,48.22
2018-03-18T09:51:50.346Z,48.41
2018-03-18T09:52:30.748Z,48.41
2018-03-18T10:47:41.664Z,47.66
2018-03-18T10:51:27.993Z,46.8
2018-03-18T10:52:08.334Z,47.56
2018-03-18T10:58:59.032Z,47.56
2018-03-18T10:59:39.392Z,47.73
2018-03-18T11:00:19.890Z,47.75
2018-03-18T11:01:00.290Z,47.56
2018-03-18T11:01:40.671Z,48.58
2018-03-18T11:02:21.095Z,47.44
2018-03-18T11:03:01.507Z,47.63
2018-03-18T11:03:41.923Z,47.73
2018-03-18T11:04:22.261Z,49.41
2018-03-18T11:05:02.655Z,50.1
2018-03-18T11:05:43.073Z,50.67
2018-03-18T11:06:23.454Z,51.62
2018-03-18T11:07:03.889Z,50.76
2018-03-18T11:07:44.295Z,50.29
2018-03-18T11:08:24.678Z,48.77
2018-03-18T11:09:05.134Z,49.34
2018-03-18T11:09:45.532Z,48.2
2018-03-18T11:10:25.907Z,48.96
2018-03-18T11:11:06.324Z,49.82
2018-03-18T11:11:46.762Z,50.29
2018-03-18T11:12:27.158Z,50.38
2018-03-18T11:13:22.409Z,50.38
2018-03-18T11:14:02.825Z,49.82
2018-03-18T11:22:06.099Z,50.95
2018-03-18T11:22:46.875Z,50.2
2018-03-18T11:23:27.263Z,49.93
2018-03-18T11:24:07.677Z,49.27
2018-03-18T11:24:48.212Z,48.8
2018-03-18T11:25:28.577Z,47.85
2018-03-18T11:26:09.020Z,48.51
2018-03-18T11:26:49.505Z,48.7
2018-03-18T11:27:30.049Z,48.89
2018-03-18T11:28:10.380Z,47.47
2018-03-18T11:28:50.862Z,47.3
2018-03-18T11:29:31.302Z,47.02
2018-03-18T11:30:11.922Z,46.25
2018-03-18T11:30:52.312Z,46.16
2018-03-18T11:31:32.718Z,46.54
2018-03-18T11:32:13.179Z,46.35
2018-03-18T11:32:53.536Z,46.92
2018-03-18T11:33:34.652Z,46.9
2018-03-18T11:34:15.181Z,46.83
2018-03-18T11:34:56.179Z,46.33
2018-03-18T11:35:36.950Z,45.57
2018-03-18T11:36:17.207Z,46.69
2018-03-18T11:36:57.611Z,47.16
2018-03-18T11:37:39.607Z,48.68
2018-03-18T11:38:20.051Z,50.01
2018-03-18T11:39:00.487Z,49.53
2018-03-18T11:39:40.884Z,46.37
2018-03-18T11:40:21.282Z,46.66
2018-03-18T11:41:01.671Z,47.58
2018-03-18T11:41:42.172Z,49.1
2018-03-18T11:42:22.629Z,50.52
2018-03-18T11:44:35.740Z,51.85
2018-03-18T11:45:16.076Z,52.26
2018-03-18T11:45:56.463Z,52.54
2018-03-18T11:46:36.895Z,52.16
2018-03-18T11:47:17.259Z,51.4
2018-03-18T11:47:57.676Z,49.91
2018-03-18T11:48:38.067Z,48.75
2018-03-18T11:49:18.421Z,47.99
2018-03-18T11:49:58.833Z,48.36
2018-03-18T11:50:39.254Z,49.51
2018-03-18T11:51:19.645Z,49.29
2018-03-18T11:52:00.039Z,49.86
2018-03-18T11:52:40.476Z,50.9
2018-03-18T11:53:20.784Z,50.71
2018-03-18T11:54:01.238Z,51.95
2018-03-18T11:54:41.634Z,52.16
2018-03-18T11:55:22.042Z,50.74
2018-03-18T11:56:02.482Z,50.81
2018-03-18T11:56:42.878Z,50.55
2018-03-18T11:57:23.263Z,50.83
2018-03-18T11:58:03.696Z,51.4
2018-03-18T11:58:44.125Z,51.12
2018-03-18T11:59:24.518Z,50.36
2018-03-18T12:00:04.899Z,49.32
2018-03-18T12:00:45.288Z,49.79
2018-03-18T12:01:25.740Z,48.65
2018-03-18T12:02:06.132Z,47.58
2018-03-18T12:02:46.530Z,47.68
2018-03-18T12:03:34.077Z,49.29
2018-03-18T12:04:14.505Z,51.37
2018-03-18T12:04:54.953Z,51.35
2018-03-18T12:05:35.336Z,50.12
2018-03-18T12:06:15.744Z,50.78
2018-03-18T12:06:56.108Z,52.77
2018-03-18T12:07:36.537Z,54.67
2018-03-18T12:08:17.017Z,53.25
2018-03-18T12:09:12.742Z,51.28
2018-03-18T12:10:08.029Z,49.65
2018-03-18T12:10:48.405Z,49.93
2018-03-18T12:11:28.832Z,50.97
2018-03-18T12:12:09.286Z,51.32
2018-03-18T12:12:50.303Z,52.46
2018-03-18T12:13:30.734Z,53.41
2018-03-18T12:14:11.147Z,53.53
2018-03-18T12:14:51.561Z,54.1
2018-03-18T12:15:31.969Z,54.76
2018-03-18T12:16:12.863Z,54.57
2018-03-18T12:16:53.220Z,53.34
2018-03-18T12:17:33.661Z,51.92
2018-03-18T12:18:14.079Z,52.23
2018-03-18T12:18:54.483Z,52.23
2018-03-18T12:19:34.879Z,53.46
2018-03-18T12:20:15.283Z,52.33
2018-03-18T12:20:55.677Z,51.78
2018-03-18T12:21:36.148Z,50.17
2018-03-18T12:22:16.455Z,49.19
2018-03-18T12:22:56.898Z,49.29
2018-03-18T12:23:37.257Z,48.82
2018-03-18T12:24:17.707Z,49.38
2018-03-18T12:24:58.065Z,49.65
2018-03-18T12:25:38.490Z,50.81
2018-03-18T12:26:18.916Z,50.12
2018-03-18T12:26:59.279Z,50.78
2018-03-18T12:27:39.690Z,52.01
2018-03-18T12:28:20.176Z,52.8
2018-03-18T12:29:00.575Z,53.46
2018-03-18T12:29:41.027Z,53.46
2018-03-18T12:30:21.365Z,50.15
2018-03-18T12:31:01.812Z,49.76
2018-03-18T12:31:42.161Z,51.18
2018-03-18T12:32:22.590Z,50.71
2018-03-18T12:33:02.993Z,50.45
2018-03-18T12:33:43.382Z,49.67
2018-03-18T12:34:23.780Z,50.74
2018-03-18T12:35:04.206Z,49.69
2018-03-18T12:35:44.580Z,48.36
2018-03-18T12:36:24.957Z,48.65
2018-03-18T12:37:05.380Z,50.26
2018-03-18T12:37:45.812Z,50.93
2018-03-18T12:38:26.176Z,51.68
2018-03-18T12:39:06.608Z,50.86
2018-03-18T12:39:47.076Z,50.29
2018-03-18T12:40:27.453Z,49.34
2018-03-18T12:41:07.924Z,48.77
2018-03-18T12:46:27.437Z,45
2018-03-18T12:47:08.141Z,46.25
2018-03-18T12:47:49.205Z,46.64
2018-03-18T12:48:29.634Z,45.5
2018-03-18T12:49:10.325Z,46.64
2018-03-18T12:49:52.217Z,45.28
2018-03-18T12:50:32.789Z,45.66
2018-03-18T12:51:13.171Z,46.54
2018-03-18T12:51:54.928Z,46.35
2018-03-18T12:52:35.379Z,45.4
2018-03-18T12:53:15.882Z,45.31
2018-03-18T12:53:56.427Z,45.21
2018-03-18T12:54:36.857Z,44.54
2018-03-18T12:55:17.239Z,44.35
2018-03-18T12:55:57.679Z,43.6
2018-03-18T12:56:38.194Z,46.06
2018-03-18T12:57:18.615Z,45.97
2018-03-18T12:57:58.982Z,46.25
2018-03-18T12:58:39.375Z,45.21
2018-03-18T12:59:20.782Z,45.31
2018-03-18T13:00:01.371Z,45.31
2018-03-18T13:00:41.787Z,44.95
2018-03-18T13:01:22.192Z,44.85
2018-03-18T13:02:02.568Z,44
2018-03-18T13:02:43.048Z,42.29
2018-03-18T13:03:24.013Z,42.29
2018-03-18T13:04:05.297Z,41.31
2018-03-18T13:04:45.783Z,43.48
2018-03-18T13:05:26.315Z,43.95
2018-03-18T13:06:06.687Z,45.09
2018-03-18T13:06:47.094Z,46.14
2018-03-18T13:07:27.506Z,46.23
2018-03-18T13:08:07.936Z,44.81
2018-03-18T13:08:48.624Z,45.66
2018-03-18T13:09:29.252Z,46.51
2018-03-18T13:10:09.713Z,44.53
2018-03-18T13:10:50.416Z,43.65
2018-03-18T13:11:31.748Z,43.93
2018-03-18T13:12:12.146Z,45.73
2018-03-18T13:12:52.517Z,46
2018-03-18T13:13:33.200Z,46.66
2018-03-18T13:14:13.626Z,46.37
2018-03-18T13:14:54.024Z,45.9
2018-03-18T13:15:34.522Z,47.13
2018-03-18T13:16:14.888Z,48.84
2018-03-18T13:16:55.423Z,49.69
2018-03-18T13:17:36.027Z,49.88
2018-03-18T13:18:16.422Z,50.48
2018-03-18T13:26:26.046Z,43.88
2018-03-18T13:27:06.421Z,43.69
2018-03-18T13:27:46.798Z,44.64